LICR/REG METAR and TAF weather

Enter ICAO airport designator
Station Type Date Time Source
LICR METAR 2021/04/14 20:20 UTC NOAA

LICR 142020Z AUTO 08005KT 020V130 9999 FEW046/// SCT078/// 13/08 Q1020


Station Type Date Time Source
LICR Decoded METAR 2021/04/14 20:20 UTC NOAA

Reggio Calabria, Italy (LICR) 38-04N 015-39E 21M
Apr 14, 2021 - 04:20 PM EDT / 2021.04.14 2020 UTC
Wind: from the E (080 degrees) at 6 MPH (5 KT) (direction variable):0
Visibility: greater than 7 mile(s):0
Sky conditions: partly cloudy
Temperature: 55 F (13 C)
Dew Point: 46 F (8 C)
Relative Humidity: 71%
Pressure (altimeter): 30.12 in. Hg (1020 hPa)
ob: LICR 142020Z AUTO 08005KT 020V130 9999 FEW046/// SCT078/// 13/08 Q1020
cycle: 20

Station Type Date Time Source
LICR TAF 2021/04/14 18:21 UTC NOAA

TAF LICR 141700Z 1418/1518 19013KT 9999 SCT030
TEMPO 1510/1518 RA

Example: see airport list